Time;durP1;ratioP1;P1;durP2;ratioP2;P2;SDS_P1;SDS_P2;PMS_P1;PMS_P2;Temp;Humidity;BMP_temperature;BMP_pressure;BME280_temperature;BME280_humidity;BME280_pressure;Samples;Min_cycle;Max_cycle;Signal;HPM_P1;HPM_P2
2023/12/29 00:00:06;;;;;;;6.47;1.38;;;10.30;99.90;;;;;;5092366;28;20081;-92
2023/12/29 00:02:32;;;;;;;8.50;3.08;;;10.30;99.90;;;;;;5095890;28;20058;-93
2023/12/29 00:04:57;;;;;;;8.02;1.10;;;10.20;99.90;;;;;;5088883;28;20054;-92
2023/12/29 00:07:23;;;;;;;8.40;1.42;;;10.20;99.90;;;;;;5065005;28;20110;-92
2023/12/29 00:09:48;;;;;;;7.72;1.15;;;10.20;99.90;;;;;;5063503;28;20112;-93
2023/12/29 00:12:14;;;;;;;7.43;1.10;;;10.20;99.90;;;;;;5088602;28;20042;-91
2023/12/29 00:14:40;;;;;;;2.35;0.80;;;10.20;99.90;;;;;;5088969;28;20036;-92
2023/12/29 00:17:06;;;;;;;4.25;1.10;;;10.20;99.90;;;;;;5065659;28;20498;-92
2023/12/29 00:19:31;;;;;;;4.60;1.05;;;10.20;99.90;;;;;;5074607;28;20028;-92
2023/12/29 00:21:59;;;;;;;4.70;1.38;;;10.20;99.90;;;;;;5071907;28;20040;-90
2023/12/29 00:24:25;;;;;;;7.38;1.20;;;10.20;99.90;;;;;;5062637;28;20066;-91
2023/12/29 00:26:51;;;;;;;8.23;1.65;;;10.10;99.90;;;;;;5096175;28;20036;-92
2023/12/29 00:29:17;;;;;;;5.32;1.33;;;10.10;99.90;;;;;;5092208;28;20081;-91
2023/12/29 00:31:43;;;;;;;12.93;2.10;;;10.10;99.90;;;;;;5086324;28;20036;-91
2023/12/29 00:34:08;;;;;;;3.72;1.00;;;10.10;99.90;;;;;;5090953;28;20042;-92
2023/12/29 00:36:34;;;;;;;7.53;1.40;;;10.00;99.90;;;;;;5085210;28;20070;-91
2023/12/29 00:38:59;;;;;;;3.97;0.90;;;10.00;99.90;;;;;;5109327;28;20043;-91
2023/12/29 00:41:25;;;;;;;7.32;1.52;;;9.90;99.90;;;;;;5092541;28;20399;-91
2023/12/29 00:43:51;;;;;;;4.63;1.73;;;9.90;99.90;;;;;;5093039;28;20035;-91
2023/12/29 00:46:16;;;;;;;4.13;1.27;;;9.90;99.90;;;;;;5093315;28;20433;-91
2023/12/29 00:48:42;;;;;;;3.17;1.00;;;9.90;99.90;;;;;;5109587;28;20036;-91
2023/12/29 00:51:08;;;;;;;13.93;3.38;;;9.80;99.90;;;;;;5092219;28;20039;-91
2023/12/29 00:53:37;;;;;;;7.07;1.17;;;9.90;99.90;;;;;;5091731;28;20051;-90
2023/12/29 00:56:03;;;;;;;5.93;1.70;;;9.90;99.90;;;;;;5108780;28;20118;-91
2023/12/29 00:58:29;;;;;;;8.98;1.67;;;9.90;99.90;;;;;;5109213;28;20040;-91
2023/12/29 01:00:55;;;;;;;3.50;1.08;;;9.90;99.90;;;;;;5108971;28;20050;-90
2023/12/29 01:03:21;;;;;;;2.45;0.75;;;9.90;99.90;;;;;;5108950;28;20062;-91
2023/12/29 01:05:47;;;;;;;3.45;0.90;;;9.90;99.90;;;;;;5110361;28;20406;-91
2023/12/29 01:08:12;;;;;;;7.20;1.73;;;9.90;99.90;;;;;;5096299;28;20035;-90
2023/12/29 01:10:38;;;;;;;6.82;1.48;;;9.90;99.90;;;;;;5094757;28;20398;-91
2023/12/29 01:13:04;;;;;;;4.20;1.05;;;9.90;99.90;;;;;;5112595;28;20047;-91
2023/12/29 01:15:29;;;;;;;7.85;1.95;;;9.90;99.90;;;;;;5113006;28;20042;-91
2023/12/29 01:17:55;;;;;;;9.68;1.50;;;9.80;99.90;;;;;;5096244;28;20040;-91
2023/12/29 01:20:21;;;;;;;4.95;1.10;;;9.80;99.90;;;;;;5095993;28;20584;-91
2023/12/29 01:22:46;;;;;;;7.20;1.20;;;9.80;99.90;;;;;;5095985;28;20097;-91
2023/12/29 01:25:12;;;;;;;10.55;1.73;;;9.80;99.90;;;;;;5112365;28;20142;-91
2023/12/29 01:27:38;;;;;;;4.28;0.77;;;9.90;99.90;;;;;;5114080;28;20041;-90
2023/12/29 01:30:04;;;;;;;6.22;0.98;;;9.90;99.90;;;;;;5095709;28;20148;-90
2023/12/29 01:32:30;;;;;;;7.50;2.30;;;9.90;99.90;;;;;;5112735;28;20031;-91
2023/12/29 01:34:56;;;;;;;4.05;1.33;;;9.90;99.90;;;;;;5095539;28;20088;-90
2023/12/29 01:37:21;;;;;;;3.83;0.80;;;9.90;99.90;;;;;;5095923;28;20043;-90
2023/12/29 01:39:47;;;;;;;8.52;1.83;;;10.00;99.90;;;;;;5112476;28;20035;-90
2023/12/29 01:42:13;;;;;;;3.50;1.08;;;10.00;99.90;;;;;;5095595;28;20085;-91
2023/12/29 01:44:38;;;;;;;9.45;1.33;;;10.10;99.90;;;;;;5094772;28;20092;-91
2023/12/29 01:47:12;;;;;;;10.52;1.45;;;10.10;99.90;;;;;;5095334;28;20123;-90
2023/12/29 01:49:38;;;;;;;3.60;1.45;;;10.10;99.90;;;;;;5095447;28;20055;-91
2023/12/29 01:52:04;;;;;;;7.05;1.80;;;10.10;99.90;;;;;;5095593;28;20050;-91
2023/12/29 01:54:35;;;;;;;2.42;0.85;;;10.10;99.90;;;;;;5095097;28;20479;-91
2023/12/29 01:57:02;;;;;;;3.08;1.40;;;10.20;99.90;;;;;;5087002;28;20517;-91
2023/12/29 01:59:28;;;;;;;7.05;1.30;;;10.20;99.90;;;;;;5083095;28;20051;-92
2023/12/29 02:01:58;;;;;;;5.03;1.42;;;10.10;99.90;;;;;;5075131;28;20395;-90
2023/12/29 02:04:25;;;;;;;5.03;1.35;;;10.10;99.90;;;;;;5074565;28;20044;-90
2023/12/29 02:06:51;;;;;;;8.05;2.35;;;10.10;99.90;;;;;;5080016;28;20042;-91
2023/12/29 02:09:17;;;;;;;7.30;1.60;;;10.10;99.90;;;;;;5110513;28;20032;-90
2023/12/29 02:11:43;;;;;;;10.45;1.48;;;10.10;99.90;;;;;;5094840;28;20071;-91
2023/12/29 02:14:10;;;;;;;3.65;1.08;;;10.10;99.90;;;;;;5094718;28;20100;-91
2023/12/29 02:16:48;;;;;;;5.70;1.45;;;10.10;99.90;;;;;;5094399;28;20040;-91
2023/12/29 02:19:46;;;;;;;4.60;1.38;;;10.10;99.90;;;;;;5094844;28;20048;-91
2023/12/29 02:22:12;;;;;;;8.30;1.42;;;10.10;99.90;;;;;;5094932;28;20402;-90
2023/12/29 02:24:38;;;;;;;4.97;1.23;;;10.10;99.90;;;;;;5111428;28;20095;-90
2023/12/29 02:27:13;;;;;;;7.18;1.52;;;10.20;99.90;;;;;;5112865;28;20074;-91
2023/12/29 02:29:43;;;;;;;7.88;1.30;;;10.20;99.90;;;;;;5094792;28;20047;-92
2023/12/29 02:32:13;;;;;;;4.72;1.02;;;10.20;99.90;;;;;;5111875;28;20039;-92
2023/12/29 02:34:41;;;;;;;2.10;0.80;;;10.20;99.90;;;;;;5111809;28;20054;-91
2023/12/29 02:37:08;;;;;;;8.95;1.65;;;10.20;99.90;;;;;;5108634;28;20046;-91
2023/12/29 02:39:34;;;;;;;3.08;1.58;;;10.20;99.90;;;;;;5090003;28;20032;-91
2023/12/29 02:42:00;;;;;;;2.83;0.95;;;10.20;99.90;;;;;;5107796;28;20084;-91
2023/12/29 02:44:26;;;;;;;6.13;1.30;;;10.30;99.90;;;;;;5093963;28;20063;-91
2023/12/29 02:46:51;;;;;;;7.45;1.70;;;10.30;99.90;;;;;;5094703;28;20050;-91
2023/12/29 02:49:17;;;;;;;6.05;1.30;;;10.30;99.90;;;;;;5109919;28;20044;-91
2023/12/29 02:51:45;;;;;;;4.85;1.08;;;10.40;99.90;;;;;;5089758;28;20094;-91
2023/12/29 02:54:11;;;;;;;8.75;1.77;;;10.40;99.90;;;;;;5093709;28;20039;-90
2023/12/29 02:56:36;;;;;;;5.00;0.93;;;10.40;99.90;;;;;;5090291;28;20396;-92
2023/12/29 02:59:02;;;;;;;8.88;1.83;;;10.40;99.90;;;;;;5085125;28;20044;-91
2023/12/29 03:01:28;;;;;;;7.80;1.60;;;10.50;99.90;;;;;;5074034;28;20104;-91
2023/12/29 03:03:54;;;;;;;6.25;1.00;;;10.50;99.90;;;;;;5091452;28;20051;-90
2023/12/29 03:06:20;;;;;;;4.82;1.15;;;10.50;99.90;;;;;;5075786;28;20112;-91
2023/12/29 03:08:45;;;;;;;7.00;1.38;;;10.50;99.90;;;;;;5103270;28;20451;-89
2023/12/29 03:11:11;;;;;;;9.55;1.83;;;10.50;99.90;;;;;;5111126;28;20036;-90
2023/12/29 03:13:37;;;;;;;4.30;0.98;;;10.60;99.90;;;;;;5093418;28;20068;-91
2023/12/29 03:16:02;;;;;;;3.63;1.13;;;10.60;99.90;;;;;;5093474;28;20045;-91
2023/12/29 03:18:28;;;;;;;8.20;1.27;;;10.60;99.90;;;;;;5110837;28;20040;-90
2023/12/29 03:20:53;;;;;;;6.20;1.40;;;10.60;99.90;;;;;;5093610;28;20062;-91
2023/12/29 03:23:19;;;;;;;2.65;0.77;;;10.60;99.90;;;;;;5093112;28;20035;-90
2023/12/29 03:25:45;;;;;;;4.20;1.17;;;10.50;99.90;;;;;;5093149;28;20032;-90
2023/12/29 03:28:10;;;;;;;5.53;1.00;;;10.50;99.90;;;;;;5109292;28;20031;-90
2023/12/29 03:30:36;;;;;;;3.83;0.85;;;10.40;99.90;;;;;;5093445;28;20034;-90
2023/12/29 03:33:02;;;;;;;4.22;0.85;;;10.30;99.90;;;;;;5110013;28;20057;-90
2023/12/29 03:35:28;;;;;;;5.53;1.20;;;10.30;99.90;;;;;;5093233;28;20043;-91
2023/12/29 03:37:54;;;;;;;5.65;0.80;;;10.20;99.90;;;;;;5093229;28;20079;-91
2023/12/29 03:40:20;;;;;;;4.18;1.33;;;10.20;99.90;;;;;;5093128;28;20040;-91
2023/12/29 03:42:46;;;;;;;4.13;0.90;;;10.20;99.90;;;;;;5084498;28;20502;-90
2023/12/29 03:45:11;;;;;;;7.25;1.50;;;10.20;99.90;;;;;;5110182;28;20051;-90
2023/12/29 03:47:37;;;;;;;4.05;0.95;;;10.30;99.90;;;;;;5085164;28;20130;-91
2023/12/29 03:50:03;;;;;;;5.95;1.27;;;10.30;99.90;;;;;;5078447;28;20043;-92
2023/12/29 03:52:29;;;;;;;6.22;1.42;;;10.20;99.90;;;;;;5109980;28;20040;-91
2023/12/29 03:54:54;;;;;;;3.97;1.00;;;10.20;99.90;;;;;;5109626;28;20169;-90
2023/12/29 03:57:20;;;;;;;1.45;0.60;;;10.20;99.90;;;;;;5092689;28;20067;-91
2023/12/29 03:59:45;;;;;;;4.18;0.90;;;10.20;99.90;;;;;;5078404;28;20122;-91
2023/12/29 04:02:11;;;;;;;7.97;1.23;;;10.20;99.90;;;;;;5072602;28;20040;-91
2023/12/29 04:04:38;;;;;;;5.95;1.25;;;10.20;99.90;;;;;;5072292;28;20028;-91
2023/12/29 04:07:04;;;;;;;5.60;1.00;;;10.20;99.90;;;;;;5070063;28;20460;-91
2023/12/29 04:09:30;;;;;;;5.07;1.08;;;10.30;99.90;;;;;;5080097;28;20032;-90
2023/12/29 04:11:56;;;;;;;8.23;1.27;;;10.30;99.90;;;;;;5091113;28;20031;-90
2023/12/29 04:14:22;;;;;;;3.50;0.80;;;10.30;99.90;;;;;;5109172;28;20191;-90
2023/12/29 04:16:47;;;;;;;7.43;1.27;;;10.40;99.90;;;;;;5092427;28;20039;-91
2023/12/29 04:19:13;;;;;;;1.95;0.65;;;10.40;99.90;;;;;;5092708;28;20063;-90
2023/12/29 04:21:38;;;;;;;8.98;1.13;;;10.30;99.90;;;;;;5092676;28;20046;-90
2023/12/29 04:24:04;;;;;;;7.03;2.17;;;10.20;99.90;;;;;;5091879;28;20119;-89
2023/12/29 04:26:38;;;;;;;4.82;1.17;;;10.20;99.90;;;;;;5109245;28;20044;-90
2023/12/29 04:29:03;;;;;;;5.03;1.58;;;10.20;99.90;;;;;;5092439;28;20043;-90
2023/12/29 04:31:29;;;;;;;6.13;1.67;;;10.20;99.90;;;;;;5109543;28;20093;-91
2023/12/29 04:33:54;;;;;;;4.97;1.58;;;10.20;99.90;;;;;;5110505;28;20542;-90
2023/12/29 04:36:20;;;;;;;6.30;1.13;;;10.30;99.90;;;;;;5109206;28;21300;-90
2023/12/29 04:38:46;;;;;;;6.50;1.08;;;10.20;99.90;;;;;;5092611;28;20050;-89
2023/12/29 04:41:13;;;;;;;7.97;1.58;;;10.20;99.90;;;;;;5109174;28;20510;-90
2023/12/29 04:43:38;;;;;;;8.43;2.33;;;10.20;99.90;;;;;;5086973;28;20039;-90
2023/12/29 04:46:04;;;;;;;4.40;1.20;;;10.20;99.90;;;;;;5091732;28;20073;-90
2023/12/29 04:48:29;;;;;;;8.05;1.52;;;10.20;99.90;;;;;;5092480;28;20732;-90
2023/12/29 04:50:55;;;;;;;9.90;1.90;;;10.20;99.90;;;;;;5092368;28;20036;-91
2023/12/29 04:53:21;;;;;;;6.85;1.55;;;10.20;99.90;;;;;;5108995;28;20044;-91
2023/12/29 04:55:46;;;;;;;5.25;1.60;;;10.20;99.90;;;;;;5092310;28;20039;-91
2023/12/29 04:58:12;;;;;;;6.85;1.10;;;10.30;99.90;;;;;;5107448;28;20074;-91
2023/12/29 05:00:38;;;;;;;6.10;1.50;;;10.20;99.90;;;;;;5072375;28;20055;-91
2023/12/29 05:03:03;;;;;;;6.10;1.05;;;10.20;99.90;;;;;;5071899;28;20044;-89
2023/12/29 05:05:29;;;;;;;3.63;0.95;;;10.20;99.90;;;;;;5071846;28;20085;-90
2023/12/29 05:07:55;;;;;;;4.22;0.93;;;10.20;99.90;;;;;;5063798;28;20036;-90
2023/12/29 05:10:20;;;;;;;10.65;2.00;;;10.20;99.90;;;;;;5072820;28;20090;-91
2023/12/29 05:12:46;;;;;;;6.50;2.05;;;10.20;99.90;;;;;;5107111;28;20180;-90
2023/12/29 05:15:12;;;;;;;5.72;1.17;;;10.10;99.90;;;;;;5090584;28;20352;-90
2023/12/29 05:17:39;;;;;;;9.68;1.42;;;10.20;99.90;;;;;;5090661;28;20035;-91
2023/12/29 05:20:06;;;;;;;10.25;1.42;;;10.10;99.90;;;;;;5090364;28;20036;-90
2023/12/29 05:22:32;;;;;;;3.92;1.15;;;10.20;99.90;;;;;;5084866;28;20047;-91
2023/12/29 05:24:59;;;;;;;13.93;1.75;;;10.10;99.90;;;;;;5085933;28;20036;-91
2023/12/29 05:27:26;;;;;;;4.18;1.75;;;10.10;99.90;;;;;;5106430;28;20526;-90
2023/12/29 05:29:52;;;;;;;6.15;1.55;;;10.10;99.90;;;;;;5073739;28;20531;-91
2023/12/29 05:32:18;;;;;;;7.40;1.30;;;10.10;99.90;;;;;;5067020;28;20549;-89
2023/12/29 05:34:43;;;;;;;7.55;1.33;;;10.10;99.90;;;;;;5109034;28;20402;-90
2023/12/29 05:37:09;;;;;;;6.60;1.02;;;10.10;99.90;;;;;;5108622;28;20118;-90
2023/12/29 05:39:34;;;;;;;6.82;0.95;;;10.10;99.90;;;;;;5110211;28;20035;-89
2023/12/29 05:42:00;;;;;;;8.57;1.75;;;10.10;99.90;;;;;;5092292;28;20042;-89
2023/12/29 05:44:26;;;;;;;4.32;1.08;;;10.00;99.90;;;;;;5087203;28;20051;-89
2023/12/29 05:46:51;;;;;;;13.32;1.98;;;10.00;99.90;;;;;;5080710;28;20036;-90
2023/12/29 05:49:17;;;;;;;14.60;2.08;;;10.00;99.90;;;;;;5107839;28;20437;-90
2023/12/29 05:51:44;;;;;;;12.90;1.83;;;10.00;99.90;;;;;;5067126;28;20047;-91
2023/12/29 05:54:10;;;;;;;10.50;1.67;;;10.00;99.90;;;;;;5069996;28;20044;-91
2023/12/29 05:56:35;;;;;;;10.70;2.88;;;10.00;99.90;;;;;;5092030;28;20418;-91
2023/12/29 05:59:01;;;;;;;9.02;2.05;;;9.90;99.90;;;;;;5068851;28;20036;-90
2023/12/29 06:01:27;;;;;;;12.63;3.10;;;9.90;99.90;;;;;;5075459;28;20036;-90
2023/12/29 06:03:52;;;;;;;7.40;1.23;;;9.90;99.90;;;;;;5074857;28;20028;-89
2023/12/29 06:06:18;;;;;;;11.27;1.77;;;9.90;99.90;;;;;;5076032;28;20411;-89
2023/12/29 06:08:44;;;;;;;7.07;1.40;;;9.90;99.90;;;;;;5095003;28;20050;-88
2023/12/29 06:11:15;;;;;;;13.63;2.08;;;10.00;99.90;;;;;;5113243;28;20092;-90
2023/12/29 06:13:41;;;;;;;8.38;1.70;;;10.00;99.90;;;;;;5095023;28;20118;-90
2023/12/29 06:16:07;;;;;;;6.80;1.42;;;10.00;99.90;;;;;;5094924;28;20130;-91
2023/12/29 06:18:32;;;;;;;9.75;1.45;;;10.00;99.90;;;;;;5094924;28;20118;-90
2023/12/29 06:20:58;;;;;;;9.55;1.55;;;10.00;99.90;;;;;;5094389;28;20069;-89
2023/12/29 06:23:25;;;;;;;8.07;1.33;;;10.00;99.90;;;;;;5091413;28;20072;-90
2023/12/29 06:25:51;;;;;;;9.45;2.55;;;10.00;99.90;;;;;;5089914;28;20046;-90
2023/12/29 06:28:16;;;;;;;12.88;2.30;;;10.00;99.90;;;;;;5111768;28;20130;-91
2023/12/29 06:30:42;;;;;;;5.68;1.20;;;10.00;99.90;;;;;;5111687;28;20032;-90
2023/12/29 06:33:08;;;;;;;7.80;1.52;;;10.00;99.90;;;;;;5110128;28;20243;-91
2023/12/29 06:35:34;;;;;;;6.05;1.45;;;10.00;99.90;;;;;;5087120;28;20073;-89
2023/12/29 06:37:59;;;;;;;11.43;1.70;;;10.00;99.90;;;;;;5094810;28;20040;-90
2023/12/29 06:40:25;;;;;;;9.27;2.22;;;10.00;99.90;;;;;;5094432;28;20050;-89
2023/12/29 06:42:51;;;;;;;5.93;1.02;;;9.90;99.90;;;;;;5094288;28;20042;-90
2023/12/29 06:45:16;;;;;;;12.50;1.95;;;9.90;99.90;;;;;;5111087;28;20046;-91
2023/12/29 06:47:42;;;;;;;6.55;1.27;;;9.90;99.90;;;;;;5094484;28;20035;-90
2023/12/29 06:50:12;;;;;;;6.25;1.17;;;10.00;99.90;;;;;;5106090;28;20339;-90
2023/12/29 06:52:38;;;;;;;8.82;1.40;;;9.90;99.90;;;;;;5063537;28;20028;-90
2023/12/29 06:55:04;;;;;;;11.82;2.47;;;9.90;99.90;;;;;;5090552;28;20050;-90
2023/12/29 06:57:30;;;;;;;5.28;1.20;;;9.90;99.90;;;;;;5111029;28;20035;-91
2023/12/29 06:59:56;;;;;;;11.35;2.10;;;9.90;99.90;;;;;;5078732;28;20043;-91
2023/12/29 07:02:22;;;;;;;10.85;2.13;;;9.90;99.90;;;;;;5074269;28;20063;-91
2023/12/29 07:04:48;;;;;;;17.17;2.75;;;9.90;99.90;;;;;;5090312;28;20503;-91
2023/12/29 07:07:13;;;;;;;12.65;2.45;;;10.00;99.90;;;;;;5090884;28;20572;-90
2023/12/29 07:09:40;;;;;;;11.15;2.05;;;9.90;99.90;;;;;;5093051;28;20032;-90
2023/12/29 07:12:06;;;;;;;8.00;1.33;;;9.90;99.90;;;;;;5111386;28;20126;-90
2023/12/29 07:14:32;;;;;;;4.30;1.23;;;9.90;99.90;;;;;;5093928;28;20047;-91
2023/12/29 07:16:58;;;;;;;10.55;1.58;;;9.90;99.90;;;;;;5094155;28;20043;-91
2023/12/29 07:19:23;;;;;;;8.70;1.77;;;9.90;99.90;;;;;;5094007;28;20168;-90
2023/12/29 07:21:49;;;;;;;7.88;1.30;;;9.90;99.90;;;;;;5110716;28;20510;-90
2023/12/29 07:24:14;;;;;;;13.23;3.92;;;9.90;99.90;;;;;;5093220;28;20118;-90
2023/12/29 07:26:40;;;;;;;15.90;2.95;;;9.90;99.90;;;;;;5094028;28;20039;-91
2023/12/29 07:29:06;;;;;;;13.38;1.80;;;9.90;99.90;;;;;;5093580;28;20494;-91
2023/12/29 07:31:33;;;;;;;9.50;1.25;;;9.90;99.90;;;;;;5088879;28;20042;-90
2023/12/29 07:33:59;;;;;;;9.00;2.05;;;9.90;99.90;;;;;;5093259;28;20054;-90
2023/12/29 07:36:24;;;;;;;7.82;1.40;;;9.90;99.90;;;;;;5093544;28;20043;-90
2023/12/29 07:38:50;;;;;;;4.85;1.23;;;9.90;99.90;;;;;;5093501;28;20070;-91
2023/12/29 07:41:16;;;;;;;9.23;1.55;;;9.90;99.90;;;;;;5093315;28;20099;-91
2023/12/29 07:43:42;;;;;;;10.52;1.77;;;9.90;99.90;;;;;;5092872;28;20418;-91
2023/12/29 07:46:08;;;;;;;6.05;1.65;;;9.90;99.90;;;;;;5093015;28;20047;-92
2023/12/29 07:48:33;;;;;;;9.35;1.90;;;9.90;99.90;;;;;;5093533;28;20034;-91
2023/12/29 07:51:05;;;;;;;8.38;2.05;;;9.90;99.90;;;;;;5094053;28;20035;-91
2023/12/29 07:53:31;;;;;;;5.80;1.42;;;9.90;99.90;;;;;;5093857;28;20089;-90
2023/12/29 07:55:56;;;;;;;8.40;2.13;;;9.90;99.90;;;;;;5111235;28;20044;-90
2023/12/29 07:58:22;;;;;;;5.43;1.40;;;9.90;99.90;;;;;;5090117;28;20048;-91
2023/12/29 08:00:48;;;;;;;5.13;1.27;;;9.80;99.90;;;;;;5073234;28;20036;-90
2023/12/29 08:03:13;;;;;;;5.78;1.60;;;9.90;99.90;;;;;;5088578;28;20510;-90
2023/12/29 08:05:39;;;;;;;4.05;1.00;;;9.90;99.90;;;;;;5089458;28;20160;-91
2023/12/29 08:08:05;;;;;;;9.88;2.50;;;9.90;99.90;;;;;;5083727;28;20043;-91
2023/12/29 08:10:34;;;;;;;6.88;1.58;;;9.90;99.90;;;;;;5109435;28;20122;-89
2023/12/29 08:13:00;;;;;;;6.78;1.40;;;9.90;99.90;;;;;;5084320;28;20387;-91
2023/12/29 08:15:25;;;;;;;4.28;1.20;;;10.00;99.90;;;;;;5092061;28;20130;-90
2023/12/29 08:17:51;;;;;;;10.40;2.05;;;9.90;99.90;;;;;;5109504;28;20070;-89
2023/12/29 08:20:16;;;;;;;5.78;1.10;;;10.00;99.90;;;;;;5102044;28;20040;-89
2023/12/29 08:22:42;;;;;;;8.82;1.55;;;10.00;99.90;;;;;;5092774;28;20036;-89
2023/12/29 08:25:08;;;;;;;7.88;1.42;;;9.90;99.90;;;;;;5108501;28;20027;-89
2023/12/29 08:27:35;;;;;;;13.30;2.05;;;10.00;99.90;;;;;;5092059;28;20036;-89
2023/12/29 08:30:00;;;;;;;8.30;1.55;;;9.90;99.90;;;;;;5092528;28;20039;-91
2023/12/29 08:32:26;;;;;;;9.55;1.92;;;10.00;99.90;;;;;;5109742;28;20406;-91
2023/12/29 08:34:52;;;;;;;4.03;1.52;;;10.00;99.90;;;;;;5092369;28;20071;-91
2023/12/29 08:37:19;;;;;;;7.85;1.95;;;9.90;99.90;;;;;;5092553;28;20046;-90
2023/12/29 08:39:47;;;;;;;5.13;1.88;;;9.90;99.90;;;;;;5103488;28;20549;-90
2023/12/29 08:42:13;;;;;;;6.05;1.73;;;10.00;99.90;;;;;;5073413;28;20047;-90
2023/12/29 08:44:38;;;;;;;7.38;1.35;;;10.00;99.90;;;;;;5109095;28;20031;-89
2023/12/29 08:47:07;;;;;;;6.95;2.55;;;10.00;99.90;;;;;;5108502;28;20048;-90
2023/12/29 08:49:34;;;;;;;8.52;1.40;;;10.00;99.90;;;;;;5084460;28;20043;-89
2023/12/29 08:51:59;;;;;;;5.85;1.25;;;10.00;99.90;;;;;;5097325;28;20170;-90
2023/12/29 08:54:25;;;;;;;12.38;2.10;;;10.00;99.90;;;;;;5074563;28;20126;-90
2023/12/29 08:56:51;;;;;;;10.23;1.88;;;10.00;99.90;;;;;;5076641;28;20051;-90
2023/12/29 08:59:16;;;;;;;7.65;2.30;;;10.10;99.90;;;;;;5084304;28;20044;-89
2023/12/29 09:01:42;;;;;;;7.78;1.35;;;10.10;99.90;;;;;;5079623;28;20047;-90
2023/12/29 09:04:07;;;;;;;6.15;1.73;;;10.10;99.90;;;;;;5071723;28;20123;-89
2023/12/29 09:06:34;;;;;;;9.77;2.03;;;10.10;99.90;;;;;;5093646;28;20116;-90
2023/12/29 09:09:00;;;;;;;9.15;1.55;;;10.20;99.90;;;;;;5091243;28;20036;-92
2023/12/29 09:11:26;;;;;;;4.50;1.58;;;10.20;99.90;;;;;;5095524;28;20034;-90
2023/12/29 09:13:52;;;;;;;2.53;0.60;;;10.20;99.90;;;;;;5074251;28;20070;-91
2023/12/29 09:16:18;;;;;;;8.18;1.23;;;10.30;99.90;;;;;;5066094;28;20071;-92
2023/12/29 09:18:43;;;;;;;4.22;1.38;;;10.30;99.90;;;;;;5074594;28;20115;-90
2023/12/29 09:21:09;;;;;;;4.55;1.10;;;10.30;99.90;;;;;;5099664;28;20529;-91
2023/12/29 09:23:37;;;;;;;5.32;1.17;;;10.30;99.90;;;;;;5094664;28;20530;-90
2023/12/29 09:26:03;;;;;;;5.28;1.20;;;10.30;99.90;;;;;;5091176;28;20044;-90
2023/12/29 09:28:29;;;;;;;6.03;2.05;;;10.30;99.90;;;;;;5086164;28;20123;-91
2023/12/29 09:30:55;;;;;;;12.30;3.28;;;10.30;99.90;;;;;;5112236;28;20271;-91
2023/12/29 09:33:20;;;;;;;8.85;1.33;;;10.40;99.90;;;;;;5110341;28;20042;-92
2023/12/29 09:35:46;;;;;;;3.30;0.88;;;10.40;99.90;;;;;;5086904;28;20032;-90
2023/12/29 09:38:12;;;;;;;10.55;1.40;;;10.30;99.90;;;;;;5083039;28;20101;-91
2023/12/29 09:40:38;;;;;;;1.60;0.93;;;10.30;99.90;;;;;;5112379;28;20700;-89
2023/12/29 09:43:04;;;;;;;5.78;1.38;;;10.30;99.90;;;;;;5089053;28;20036;-91
2023/12/29 09:45:31;;;;;;;5.13;1.13;;;10.20;99.90;;;;;;5106811;28;20038;-90
2023/12/29 09:48:00;;;;;;;7.53;1.42;;;10.30;99.90;;;;;;5111959;28;20032;-92
2023/12/29 09:50:27;;;;;;;6.15;1.35;;;10.30;99.90;;;;;;5083758;28;20551;-91
2023/12/29 09:52:53;;;;;;;4.43;1.27;;;10.20;99.90;;;;;;5106855;28;20036;-92
2023/12/29 09:55:20;;;;;;;6.05;1.63;;;10.20;99.90;;;;;;5080814;28;20071;-92
2023/12/29 09:57:48;;;;;;;2.17;0.70;;;10.20;99.90;;;;;;5064168;28;20461;-91
2023/12/29 10:00:16;;;;;;;7.72;1.20;;;10.20;99.90;;;;;;5092615;28;20063;-90
2023/12/29 10:02:42;;;;;;;9.63;1.27;;;10.10;99.90;;;;;;5063588;28;20040;-90
2023/12/29 10:05:09;;;;;;;2.95;2.22;;;10.10;99.90;;;;;;5095427;28;20040;-90
2023/12/29 10:07:39;;;;;;;2.70;0.70;;;10.00;99.90;;;;;;5061924;28;20028;-89
2023/12/29 10:10:08;;;;;;;1.83;0.88;;;10.00;99.90;;;;;;5090780;28;20035;-91
2023/12/29 10:12:36;;;;;;;4.88;0.70;;;9.90;99.90;;;;;;5073988;28;20464;-91
2023/12/29 10:15:32;;;;;;;2.30;1.00;;;9.90;99.90;;;;;;5072499;28;20048;-90
2023/12/29 10:18:18;;;;;;;2.00;0.80;;;9.90;99.90;;;;;;5090484;28;20063;-90
2023/12/29 10:20:57;;;;;;;1.60;0.52;;;9.80;99.90;;;;;;5110596;28;20044;-90
2023/12/29 10:23:46;;;;;;;2.08;0.70;;;9.70;99.90;;;;;;5103155;28;20500;-89
2023/12/29 10:26:12;;;;;;;2.03;0.45;;;9.60;99.90;;;;;;5103530;28;20040;-90
2023/12/29 10:28:38;;;;;;;3.33;0.70;;;9.50;99.90;;;;;;5081735;28;20032;-91
2023/12/29 10:31:04;;;;;;;1.10;0.43;;;9.30;99.90;;;;;;5091903;28;20027;-90
2023/12/29 10:33:32;;;;;;;1.65;0.25;;;8.90;99.90;;;;;;5111658;28;20031;-91
2023/12/29 10:36:02;;;;;;;1.70;0.20;;;8.70;99.90;;;;;;5103367;28;20051;-90
2023/12/29 10:38:28;;;;;;;0.80;0.20;;;8.50;99.90;;;;;;5107568;28;20043;-91
2023/12/29 10:40:53;;;;;;;2.08;1.33;;;8.30;99.90;;;;;;5091538;28;20067;-91
2023/12/29 10:43:23;;;;;;;0.65;0.15;;;8.10;99.90;;;;;;5075991;28;20050;-93
2023/12/29 10:45:49;;;;;;;0.98;0.43;;;8.00;99.90;;;;;;5111423;28;20039;-89
2023/12/29 10:48:24;;;;;;;0.28;0.20;;;8.00;99.90;;;;;;5111261;28;20048;-90
2023/12/29 10:50:49;;;;;;;0.00;0.00;;;7.90;99.90;;;;;;5105005;28;20047;-91
2023/12/29 10:53:18;;;;;;;3.55;0.40;;;8.00;99.90;;;;;;5081865;28;20040;-90
2023/12/29 10:55:44;;;;;;;0.77;0.20;;;8.00;99.90;;;;;;5088307;28;20043;-89
2023/12/29 10:58:10;;;;;;;3.28;0.47;;;8.10;99.90;;;;;;5102546;28;20123;-90
2023/12/29 11:00:36;;;;;;;0.95;0.30;;;8.10;99.90;;;;;;5086131;28;20028;-91
2023/12/29 11:03:03;;;;;;;0.90;0.30;;;8.20;99.90;;;;;;5094062;28;20043;-90
2023/12/29 11:05:29;;;;;;;1.23;0.43;;;8.40;99.90;;;;;;5111038;28;20039;-91
2023/12/29 11:07:55;;;;;;;3.75;0.43;;;8.60;99.90;;;;;;5087347;28;20100;-90
2023/12/29 11:10:22;;;;;;;1.63;0.32;;;8.70;99.90;;;;;;5091534;28;20032;-90
2023/12/29 11:12:48;;;;;;;2.22;0.45;;;8.90;99.90;;;;;;5091134;28;20097;-90
2023/12/29 11:15:15;;;;;;;2.17;0.35;;;9.10;99.90;;;;;;5083561;28;20118;-90
2023/12/29 11:17:49;;;;;;;9.75;0.80;;;9.20;99.90;;;;;;5093466;28;20478;-90
2023/12/29 11:20:16;;;;;;;5.25;0.52;;;9.30;99.90;;;;;;5110890;28;20554;-90
2023/12/29 11:22:43;;;;;;;2.40;0.40;;;9.40;99.90;;;;;;5087683;28;20510;-91
2023/12/29 11:25:09;;;;;;;2.45;0.73;;;9.50;99.90;;;;;;5082355;28;20028;-90
2023/12/29 11:27:35;;;;;;;1.55;0.50;;;9.50;99.90;;;;;;5084786;28;20612;-91
2023/12/29 11:30:04;;;;;;;2.83;0.40;;;9.60;99.90;;;;;;5072406;28;20107;-91
2023/12/29 11:32:54;;;;;;;2.83;0.85;;;9.70;99.90;;;;;;5064492;28;20044;-91
2023/12/29 11:35:28;;;;;;;4.53;1.38;;;9.70;99.90;;;;;;5075597;28;20040;-91
2023/12/29 11:37:56;;;;;;;2.75;1.10;;;9.70;99.90;;;;;;5094004;28;20036;-91
2023/12/29 11:41:00;;;;;;;5.90;1.42;;;9.80;99.90;;;;;;5088533;28;20430;-91
2023/12/29 11:43:26;;;;;;;5.00;0.95;;;9.80;99.90;;;;;;5055183;28;20051;-90
2023/12/29 11:45:52;;;;;;;7.25;1.20;;;9.80;99.90;;;;;;5073879;28;20040;-90
2023/12/29 11:48:56;;;;;;;6.15;1.60;;;9.90;99.90;;;;;;5078220;28;20051;-90
2023/12/29 11:51:43;;;;;;;6.57;1.50;;;9.90;99.90;;;;;;5076153;28;20127;-91
2023/12/29 11:54:09;;;;;;;4.28;1.20;;;9.90;99.90;;;;;;5092703;28;20174;-91
2023/12/29 11:56:38;;;;;;;3.38;0.77;;;10.00;99.90;;;;;;5091421;28;20071;-90
2023/12/29 11:59:20;;;;;;;6.32;1.65;;;10.10;99.90;;;;;;5089966;28;20054;-90
2023/12/29 12:01:48;;;;;;;7.35;1.30;;;10.10;99.90;;;;;;5089451;28;20051;-91
2023/12/29 12:04:45;;;;;;;2.85;1.02;;;10.20;99.90;;;;;;5101394;28;20115;-90
2023/12/29 12:07:40;;;;;;;7.65;1.05;;;10.30;99.90;;;;;;5090293;28;20035;-89
2023/12/29 12:10:20;;;;;;;7.20;1.40;;;10.30;99.90;;;;;;5096739;28;20036;-90
2023/12/29 12:12:48;;;;;;;3.58;1.02;;;10.40;99.90;;;;;;5097532;28;20036;-91
2023/12/29 12:15:29;;;;;;;5.78;1.25;;;10.40;99.90;;;;;;5082502;28;20119;-91
2023/12/29 12:17:59;;;;;;;4.30;1.25;;;10.50;99.90;;;;;;5098708;28;20127;-91
2023/12/29 12:20:28;;;;;;;4.85;0.93;;;10.60;99.90;;;;;;5081554;28;20048;-91
2023/12/29 12:22:58;;;;;;;4.43;1.42;;;10.70;99.90;;;;;;5106263;28;20035;-91
2023/12/29 12:25:29;;;;;;;4.15;0.73;;;10.70;99.90;;;;;;5092619;28;20108;-91
2023/12/29 12:27:58;;;;;;;4.38;0.93;;;10.70;99.90;;;;;;5096242;28;20032;-91
2023/12/29 12:30:24;;;;;;;5.85;1.02;;;10.70;99.90;;;;;;5090025;28;20498;-91
2023/12/29 12:33:00;;;;;;;3.97;1.83;;;10.70;99.90;;;;;;5104197;28;20039;-92
2023/12/29 12:35:28;;;;;;;6.90;1.58;;;10.70;99.90;;;;;;5100873;28;20518;-91
2023/12/29 12:38:08;;;;;;;10.55;1.45;;;10.70;99.90;;;;;;5092345;28;20046;-91
2023/12/29 12:40:33;;;;;;;8.18;1.48;;;10.60;99.90;;;;;;5092588;28;20406;-90
2023/12/29 12:42:59;;;;;;;4.72;1.17;;;10.70;99.90;;;;;;5092809;28;20046;-91
2023/12/29 12:45:27;;;;;;;3.70;0.60;;;10.70;99.90;;;;;;5093799;28;20039;-91
2023/12/29 12:48:00;;;;;;;2.97;0.60;;;10.70;99.90;;;;;;5113107;28;20036;-91
2023/12/29 12:50:26;;;;;;;7.28;1.88;;;10.70;99.90;;;;;;5093279;28;20071;-91